Latest Coastal Weather Observations for Frederick Reef

IDQ60701

Issued at 5:02 pm EST Wednesday 15 August 2018 (issued every 10 minutes, with the page automatically refreshed every 10 minutes)

About coastal observations | Map of coastal stations | Coastal observations for QLD | Marine services | Other Formats
Station Details ID: 200701 Name: FREDERICK REEF Lat: -20.94 Lon: 154.40 Height: 4.9 m
Data from the previous 72 hours. | See also: Recent months for locations in Queensland
Date/Time
EST
Wind Sea
Height
m
Swell Vis
km
Cloud Weather Temp
°C
Press
hPa
Rain since
9am
mm
Dir  Spd
kts
Gust
kts
Height
m
Period
s
Dir
15/05:00pm ESE 14 16 - - - - - - - 22.2 1017.9 -
15/04:30pm ESE 14 16 - - - - - - - 22.2 1017.7 -
15/04:00pm E 15 17 - - - - - - - 22.4 1017.7 -
15/03:30pm ESE 14 16 - - - - - - - 22.2 1017.6 -
15/03:00pm ESE 14 16 - - - - - - - 22.4 1017.6 -
15/02:30pm ESE 14 16 - - - - - - - 22.1 1017.5 -
15/02:00pm E 14 17 - - - - - - - 22.3 1017.6 -
15/01:30pm E 15 17 - - - - - - - 22.4 1017.9 -
15/01:00pm ESE 14 15 - - - - - - - 22.4 1018.3 -
15/12:30pm ESE 14 17 - - - - - - - 22.3 1018.7 -
15/12:00pm ESE 15 17 - - - - - - - 22.4 1019.1 -
15/11:30am E 16 19 - - - - - - - 22.3 1019.5 -
15/11:00am E 13 15 - - - - - - - 22.2 1019.8 -
15/10:30am E 18 20 - - - - - - - 22.0 1020.3 -
15/10:00am E 18 20 - - - - - - - 22.4 1020.3 -
15/09:30am E 18 23 - - - - - - - 22.4 1020.4 -
15/09:00am E 17 21 - - - - - - - 22.3 1020.4 -
15/08:30am ESE 16 18 - - - - - - - 21.8 1020.2 -
15/08:00am ESE 17 19 - - - - - - - 21.9 1020.0 -
15/07:30am ESE 14 18 - - - - - - - 21.2 1019.9 -
15/07:00am ESE 16 19 - - - - - - - 21.5 1019.7 -
15/06:30am ESE 17 19 - - - - - - - 21.2 1019.4 -
15/06:00am ESE 15 21 - - - - - - - 21.2 1019.2 -
15/05:30am ESE 19 21 - - - - - - - 21.4 1018.9 -
15/05:00am ESE 20 24 - - - - - - - 21.5 1018.6 -
15/04:30am ESE 17 20 - - - - - - - 21.9 1018.5 -
15/04:00am ESE 16 19 - - - - - - - 21.9 1018.5 -
15/03:30am E 15 18 - - - - - - - 21.6 1018.7 -
15/03:00am E 16 20 - - - - - - - 21.6 1018.9 -
15/02:30am ESE 19 23 - - - - - - - 21.7 1019.2 -
15/02:00am E 17 19 - - - - - - - 22.0 1019.1 -
15/01:30am ESE 17 19 - - - - - - - 21.9 1019.6 -
15/01:00am ESE 17 21 - - - - - - - 21.9 1019.9 -
15/12:30am E 18 21 - - - - - - - 21.8 1020.2 -
15/12:00am ESE 17 20 - - - - - - - 21.6 1020.4 -
 
Date/Time
EST
Wind Sea
Height
m
Swell Vis
km
Cloud Weather Temp
°C
Press
hPa
Rain since
9am
mm
Dir  Spd
kts
Gust
kts
Height
m
Period
s
Dir
14/11:30pm ESE 17 19 - - - - - - - 21.6 1020.6 -
14/11:00pm ESE 19 22 - - - - - - - 21.6 1020.8 -
14/10:30pm ESE 14 17 - - - - - - - 21.3 1020.8 -
14/10:00pm E 17 21 - - - - - - - 21.2 1020.7 -
14/09:30pm ESE 22 26 - - - - - - - 21.0 1020.8 -
14/09:25pm ESE 23 26 - - - - - - - 20.9 1020.7 -
14/09:00pm SE 18 22 - - - - - - - 22.0 1020.8 -
14/08:30pm SE 20 23 - - - - - - - 22.0 1020.7 -
14/08:00pm ESE 21 23 - - - - - - - 22.0 1020.4 -
14/07:30pm SE 20 23 - - - - - - - 21.9 1020.4 -
14/07:00pm SE 19 23 - - - - - - - 21.8 1020.1 -
14/06:30pm SE 19 23 - - - - - - - 21.8 1019.7 -
14/06:00pm SE 19 24 - - - - - - - 21.9 1019.4 -
14/05:30pm SE 21 24 - - - - - - - 21.9 1019.2 -
14/05:00pm SE 23 26 - - - - - - - 21.9 1019.1 -
14/04:30pm SE 23 26 - - - - - - - 21.7 1019.0 -
14/04:00pm SE 22 25 - - - - - - - 22.0 1018.9 -
14/03:30pm SE 22 26 - - - - - - - 21.7 1018.6 -
14/03:00pm SE 23 26 - - - - - - - 21.7 1018.6 -
14/02:30pm SE 22 27 - - - - - - - 21.9 1018.7 -
14/02:00pm SE 24 26 - - - - - - - 21.6 1018.8 -
14/01:30pm SE 23 27 - - - - - - - 21.7 1019.1 -
14/01:00pm SE 22 24 - - - - - - - 21.7 1019.2 -
14/12:30pm SE 18 25 - - - - - - - 21.5 1019.9 -
14/12:00pm SE 20 24 - - - - - - - 21.1 1020.2 -
14/11:30am SSE 24 27 - - - - - - - 21.6 1020.6 -
14/11:00am SE 24 28 - - - - - - - 21.9 1020.8 -
14/10:30am SE 22 24 - - - - - - - 21.7 1021.2 -
14/10:00am SE 21 24 - - - - - - - 21.6 1021.4 -
14/09:30am SE 24 31 - - - - - - - 21.2 1021.6 -
14/09:00am SSE 24 29 - - - - - - - 21.4 1021.3 -
14/08:30am SSE 23 27 - - - - - - - 21.4 1021.0 -
14/08:00am SSE 22 25 - - - - - - - 21.7 1020.9 -
14/07:30am SSE 22 27 - - - - - - - 21.9 1020.6 -
14/07:00am SSE 24 30 - - - - - - - 21.5 1020.3 -
14/06:30am SSE 23 29 - - - - - - - 21.3 1020.0 -
14/06:00am SSE 25 30 - - - - - - - 21.2 1019.8 -
14/05:30am SSE 25 29 - - - - - - - 21.2 1019.3 -
14/05:00am SSE 23 27 - - - - - - - 21.3 1019.0 -
14/04:30am SSE 21 25 - - - - - - - 21.4 1018.9 -
14/04:00am SSE 21 23 - - - - - - - 21.5 1018.7 -
14/03:30am SSE 22 26 - - - - - - - 21.5 1018.6 -
14/03:00am SSE 23 27 - - - - - - - 21.6 1018.5 -
14/02:30am SSE 23 28 - - - - - - - 21.4 1018.6 -
14/02:00am SE 24 26 - - - - - - - 21.4 1018.7 -
14/01:30am SSE 22 26 - - - - - - - 21.3 1019.0 -
14/01:00am SSE 22 25 - - - - - - - 21.4 1019.2 -
14/12:30am SSE 22 24 - - - - - - - 21.6 1019.5 -
14/12:00am SSE 21 24 - - - - - - - 21.9 1019.9 -
 
Date/Time
EST
Wind Sea
Height
m
Swell Vis
km
Cloud Weather Temp
°C
Press
hPa
Rain since
9am
mm
Dir  Spd
kts
Gust
kts
Height
m
Period
s
Dir
13/11:30pm SSE 19 24 - - - - - - - 21.5 1020.2 -
13/11:00pm S 20 24 - - - - - - - 21.4 1020.1 -
13/10:30pm SSE 22 26 - - - - - - - 21.9 1020.3 -
13/10:00pm SSE 22 26 - - - - - - - 21.6 1020.2 -
13/09:30pm SSE 23 27 - - - - - - - 21.7 1020.2 -
13/09:00pm S 20 23 - - - - - - - 21.9 1020.0 -
13/08:30pm S 19 22 - - - - - - - 22.0 1019.7 -
13/08:00pm S 21 23 - - - - - - - 22.2 1019.5 -
13/07:30pm SSE 21 24 - - - - - - - 22.1 1019.0 -
13/07:00pm SSE 19 21 - - - - - - - 22.1 1018.6 -
13/06:30pm S 18 21 - - - - - - - 22.3 1018.2 -
13/06:00pm SSE 19 21 - - - - - - - 22.0 1018.0 -
13/05:30pm SSE 19 22 - - - - - - - 22.2 1017.6 -
13/05:00pm S 18 21 - - - - - - - 22.2 1017.3 -
13/04:30pm S 18 24 - - - - - - - 22.3 1016.9 -
13/04:00pm S 16 18 - - - - - - - 22.4 1016.9 -
13/03:30pm S 16 19 - - - - - - - 22.3 1016.8 -
13/03:00pm S 18 21 - - - - - - - 22.2 1016.8 -
13/02:30pm S 17 20 - - - - - - - 22.2 1017.0 -
13/02:00pm S 17 19 - - - - - - - 22.0 1016.9 -
13/01:30pm S 18 20 - - - - - - - 22.1 1017.0 -
13/01:00pm S 19 22 - - - - - - - 21.7 1017.1 -
13/12:30pm S 20 23 - - - - - - - 21.6 1017.4 -
13/12:00pm S 19 22 - - - - - - - 21.7 1017.5 -
13/11:30am S 19 23 - - - - - - - 21.4 1018.0 -
13/11:00am S 22 25 - - - - - - - 21.7 1018.1 -
13/10:30am S 22 25 - - - - - - - 21.5 1018.4 -
13/10:00am S 23 26 - - - - - - - 21.6 1018.4 -
13/09:30am S 23 26 - - - - - - - 21.5 1018.5 -
13/09:00am S 24 27 - - - - - - - 21.7 1018.5 -
13/08:35am SSE 22 25 - - - - - - - 20.6 1018.3 -
13/08:30am S 12 19 - - - - - - - 20.2 1018.4 -
13/08:00am S 24 26 - - - - - - - 20.8 1017.9 -
13/07:39am S 15 26 - - - - - - - 22.0 1017.6 -
13/07:30am S 13 15 - - - - - - - 22.4 1017.5 -
13/07:00am S 13 15 - - - - - - - 22.4 1017.3 -
13/06:30am S 13 15 - - - - - - - 22.3 1016.9 -
13/06:00am S 15 18 - - - - - - - 22.4 1016.5 -
13/05:30am S 14 16 - - - - - - - 21.9 1016.1 -
13/05:00am SSW 14 16 - - - - - - - 22.3 1015.9 -
13/04:30am SSW 13 14 - - - - - - - 22.2 1015.6 -
13/04:00am SW 9 11 - - - - - - - 21.9 1015.6 -
13/03:30am SW 8 11 - - - - - - - 22.0 1015.5 -
13/03:00am SW 1 3 - - - - - - - 21.9 1015.6 -
13/02:30am CALM 0 2 - - - - - - - 21.8 1015.7 -
13/02:00am CALM 0 3 - - - - - - - 21.9 1015.9 -
13/01:30am CALM 0 3 - - - - - - - 21.8 1016.3 -
13/01:00am CALM 0 1 - - - - - - - 21.9 1016.6 -
13/12:30am CALM 0 2 - - - - - - - 21.9 1016.9 -
13/12:00am CALM 0 3 - - - - - - - 22.0 1017.1 -
 
Date/Time
EST
Wind Sea
Height
m
Swell Vis
km
Cloud Weather Temp
°C
Press
hPa
Rain since
9am
mm
Dir  Spd
kts
Gust
kts
Height
m
Period
s
Dir
12/11:30pm CALM 0 5 - - - - - - - 21.9 1017.2 -
12/11:00pm CALM 0 1 - - - - - - - 22.0 1017.2 -
12/10:30pm CALM 0 3 - - - - - - - 22.0 1017.1 -
12/10:00pm CALM 0 1 - - - - - - - 22.0 1017.2 -
12/09:30pm CALM 0 2 - - - - - - - 22.0 1017.3 -
12/09:00pm CALM 0 - - - - - - - - 22.2 1017.1 -
12/08:00pm CALM 0 - - - - - - - - 22.4 1017.0 -
12/07:30pm CALM 0 3 - - - - - - - 22.3 1016.5 -
12/07:00pm CALM 0 2 - - - - - - - 22.3 1016.3 -
12/06:30pm CALM 0 3 - - - - - - - 22.2 1016.2 -
12/06:00pm CALM 0 4 - - - - - - - 22.2 1016.0 -

Other Formats:

Comma delimited format used in spreadsheet applications
http://www.bom.gov.au/fwo/IDQ60701/IDQ60701.94393.axf

JavaScript Object Notation format (JSON) in row-major order
http://www.bom.gov.au/fwo/IDQ60701/IDQ60701.94393.json